Latest Weather Observations for Parafield

IDS60801

Issued at 3:32 pm CDT Tuesday 23 December 2014 (issued every 30 minutes, with the page automatically refreshed every 10 minutes)

About weather observations | Map of weather stations | Latest weather observations for SA | Other Formats
Station Details ID: 023013 Name: PARAFIELD AIRPORT Lat: -34.80 Lon: 138.63 Height: 9.5 m
Data from the previous 72 hours. | See also: Recent months at Parafield
Date/Time
CDT
Temp
°C
App
Temp
°C
Dew
Point
Rel
Hum
%
Delta-T
°C
Wind Press
QNH
hPa
Press
MSL
hPa
Rain
since 9 am
mm
Dir
 
Spd
km/h
Gust
km/h
Spd
kts
Gust
kts
23/03:30pm 22.3 16.1 12.5 53 5.6 SW 37 48 20 26 1015.1 1015.1 0.0
23/03:00pm 22.1 16.6 12.6 55 5.4 SW 33 44 18 24 1015.2 1015.2 0.0
23/02:30pm 22.4 16.9 13.5 57 5.1 SW 35 44 19 24 1014.9 1014.9 0.0
23/02:00pm 22.2 17.0 13.3 57 5.1 SW 33 43 18 23 1014.5 1014.5 0.0
23/01:30pm 22.7 17.3 12.9 54 5.6 SW 33 44 18 24 1014.3 1014.3 0.0
23/01:00pm 23.3 18.5 12.9 52 6.0 SW 30 43 16 23 1014.1 1014.1 0.0
23/12:30pm 23.8 19.2 13.6 52 5.9 SW 30 41 16 22 1014.0 1014.0 0.0
23/12:00pm 23.5 19.8 12.8 51 6.1 SW 24 33 13 18 1013.9 1013.9 0.0
23/11:30am 22.6 17.9 12.0 51 6.0 SW 28 37 15 20 1013.8 1013.8 0.0
23/11:00am 23.0 19.1 12.0 50 6.2 SW 24 35 13 19 1013.7 1013.7 0.0
23/10:30am 21.8 18.4 12.4 55 5.3 SSW 22 30 12 16 1013.6 1013.6 0.0
23/10:00am 20.6 17.6 13.6 64 4.0 SW 22 30 12 16 1013.3 1013.3 0.0
23/09:30am 19.4 17.0 13.8 70 3.2 SW 19 28 10 15 1013.2 1013.2 0.0
23/09:00am 18.3 15.5 14.2 77 2.4 SW 22 28 12 15 1013.0 1013.0 0.6
23/08:30am 18.8 16.9 14.1 74 2.7 SW 17 20 9 11 1012.5 1012.5 0.6
23/08:00am 18.7 16.4 14.0 74 2.7 SW 19 24 10 13 1012.3 1012.3 0.6
23/07:30am 18.5 16.8 14.6 78 2.3 SSW 17 24 9 13 1011.9 1011.9 0.6
23/07:15am 18.4 17.1 14.7 79 2.1 SSW 15 20 8 11 1011.7 1011.7 0.6
23/07:00am 18.3 16.5 14.4 78 2.2 SSW 17 24 9 13 1011.3 1011.3 0.6
23/06:30am 18.2 16.9 14.7 80 2.0 SSW 15 22 8 12 1011.0 1011.0 0.6
23/06:00am 18.0 17.2 15.1 83 1.7 SSW 13 17 7 9 1010.7 1010.7 0.6
23/05:30am 18.3 16.7 15.0 81 1.9 SSW 17 24 9 13 1010.3 1010.3 0.6
23/05:15am 18.2 16.7 15.3 83 1.7 SSW 17 22 9 12 1010.3 1010.3 0.6
23/05:00am 18.1 16.0 15.2 83 1.7 SSW 20 30 11 16 1010.0 1010.0 0.6
23/04:46am 18.4 16.0 15.3 82 1.8 SSW 22 30 12 16 1009.9 1009.9 0.6
23/04:30am 18.5 15.8 15.6 83 1.7 SW 24 32 13 17 1009.8 1009.8 0.6
23/04:00am 18.8 17.1 16.2 85 1.6 SW 20 26 11 14 1009.6 1009.6 0.6
23/03:52am 19.1 17.7 16.9 87 1.3 SW 20 26 11 14 1009.6 1009.6 0.6
23/03:50am 19.1 17.6 16.7 86 1.4 SW 20 26 11 14 1009.6 1009.6 0.6
23/03:37am 19.3 18.4 16.9 86 1.5 SW 17 22 9 12 1009.5 1009.5 0.6
23/03:30am 19.4 18.6 17.0 86 1.5 SW 17 22 9 12 1009.5 1009.5 0.6
23/03:00am 19.4 19.3 17.0 86 1.5 SW 13 17 7 9 1009.5 1009.5 0.6
23/02:44am 19.4 19.8 17.2 87 1.3 SW 11 17 6 9 1009.5 1009.5 0.6
23/02:30am 19.4 19.3 17.0 86 1.5 SW 13 17 7 9 1009.6 1009.6 0.6
23/02:00am 19.6 19.6 17.2 86 1.5 SSW 13 19 7 10 1009.6 1009.6 0.6
23/01:59am 19.6 19.9 17.0 85 1.6 SSW 11 17 6 9 1009.6 1009.6 0.6
23/01:30am 19.6 19.4 16.8 84 1.7 SSW 13 17 7 9 1009.7 1009.7 0.6
23/01:28am 19.6 19.4 16.8 84 1.7 SSW 13 15 7 8 1009.6 1009.6 0.6
23/01:11am 19.8 19.8 17.2 85 1.6 SSW 13 19 7 10 1009.5 1009.5 0.6
23/01:00am 19.8 19.4 17.2 85 1.6 SW 15 17 8 9 1009.5 1009.5 0.6
23/12:30am 19.8 20.9 17.0 84 1.7 SSW 7 9 4 5 1009.6 1009.6 0.6
23/12:00am 20.0 20.1 16.6 81 2.1 SSW 11 15 6 8 1009.7 1009.7 0.6
 
Date/Time
CDT
Temp
°C
App
Temp
°C
Dew
Point
Rel
Hum
%
Delta-T
°C
Wind Press
QNH
hPa
Press
MSL
hPa
Rain
since 9 am
mm
Dir
 
Spd
km/h
Gust
km/h
Spd
kts
Gust
kts
22/11:30pm 19.9 21.1 16.9 83 1.8 SSW 6 7 3 4 1009.7 1009.7 0.6
22/11:00pm 19.6 21.1 17.6 88 1.2 SSW 6 7 3 4 1009.4 1009.4 0.6
22/10:30pm 19.8 20.8 17.8 88 1.2 S 9 11 5 6 1009.2 1009.2 0.6
22/10:00pm 20.0 20.5 17.4 85 1.6 SSW 11 15 6 8 1009.2 1009.2 0.6
22/09:30pm 20.0 20.8 17.2 84 1.7 SSW 9 13 5 7 1009.2 1009.2 0.6
22/09:00pm 20.4 21.0 17.6 84 1.7 SW 11 15 6 8 1008.8 1008.8 0.6
22/08:30pm 20.9 21.0 17.5 81 2.1 WSW 13 15 7 8 1008.7 1008.7 0.6
22/08:00pm 21.1 22.2 17.9 82 2.0 W 9 11 5 6 1008.2 1008.2 0.6
22/07:30pm 21.4 23.0 17.8 80 2.2 S 6 7 3 4 1007.6 1007.6 0.6
22/07:00pm 21.2 22.1 17.6 80 2.2 ENE 9 13 5 7 1006.8 1006.8 0.6
22/06:30pm 20.6 21.4 17.2 81 2.1 SE 9 11 5 6 1007.4 1007.4 0.2
22/06:00pm 20.6 19.1 16.8 79 2.3 WSW 20 26 11 14 1008.6 1008.6 0.0
22/05:30pm 22.1 20.5 16.4 70 3.5 SW 20 26 11 14 1008.3 1008.3 0.0
22/05:00pm 24.1 21.7 14.5 55 5.7 SSW 20 24 11 13 1007.9 1007.9 0.0
22/04:30pm 24.7 25.1 15.3 56 5.7 SW 7 13 4 7 1008.1 1008.1 0.0
22/04:00pm 25.2 24.7 13.7 49 6.8 WSW 9 13 5 7 1008.0 1008.0 0.0
22/03:30pm 25.2 24.7 14.9 52 6.2 WSW 11 17 6 9 1007.9 1007.9 0.0
22/03:00pm 25.1 23.6 14.3 51 6.4 SSE 15 17 8 9 1007.1 1007.1 0.0
22/02:30pm 25.1 24.0 14.3 51 6.4 SE 13 20 7 11 1007.3 1007.3 0.0
22/02:00pm 24.0 25.7 16.3 62 4.7 ENE 2 7 1 4 1008.7 1008.7 0.0
22/01:30pm 23.4 25.0 16.0 63 4.5 W 2 7 1 4 1009.7 1009.7 0.0
22/01:00pm 23.0 22.0 16.5 67 4.0 W 17 20 9 11 1010.2 1010.2 0.0
22/12:30pm 24.3 23.8 16.8 63 4.6 NW 15 20 8 11 1010.2 1010.2 0.0
22/12:00pm 24.0 24.3 17.0 65 4.3 NW 11 15 6 8 1010.2 1010.2 0.0
22/11:30am 24.3 22.8 16.8 63 4.6 W 20 28 11 15 1009.4 1009.4 0.0
22/11:00am 25.7 24.9 12.9 45 7.4 NE 9 15 5 8 1009.0 1009.0 0.0
22/10:30am 24.6 24.6 14.1 52 6.2 SE 7 11 4 6 1008.6 1008.6 0.0
22/10:00am 24.2 24.1 14.0 53 6.0 SSE 7 11 4 6 1008.4 1008.4 0.0
22/09:30am 23.5 23.4 15.0 59 5.1 W 9 24 5 13 1007.7 1007.7 0.0
22/09:00am 23.2 24.3 17.0 68 3.8 NNW 7 11 4 6 1007.1 1007.1 0.0
22/08:30am 23.1 23.4 16.9 68 3.8 NE 11 15 6 8 1006.0 1006.0 0.0
22/08:00am 22.9 24.0 16.7 68 3.8 N 6 9 3 5 1006.1 1006.1 0.0
22/07:30am 22.6 24.0 17.3 72 3.3 SW 6 7 3 4 1006.1 1006.1 0.0
22/07:00am 22.1 23.2 16.6 71 3.3 W 6 7 3 4 1006.1 1006.1 0.0
22/06:30am 22.6 21.8 16.2 67 3.9 W 15 19 8 10 1006.0 1006.0 0.0
22/06:00am 23.3 21.8 9.3 41 7.6 NW 7 11 4 6 1005.6 1005.6 0.0
22/05:30am 25.2 22.2 7.8 33 9.3 E 13 17 7 9 1005.2 1005.2 0.0
22/05:00am 22.7 21.6 9.8 44 7.0 E 6 7 3 4 1005.7 1005.7 0.0
22/04:30am 22.5 21.2 9.3 43 7.1 ESE 6 13 3 7 1006.0 1006.0 0.0
22/04:00am 23.1 22.3 11.8 49 6.4 N 7 9 4 5 1006.2 1006.2 0.0
22/03:30am 24.0 21.4 10.7 43 7.4 ESE 15 19 8 10 1006.4 1006.4 0.0
22/03:00am 23.3 21.8 13.2 53 5.9 ESE 13 17 7 9 1006.6 1006.6 0.0
22/02:30am 24.0 22.7 14.7 56 5.5 NE 15 17 8 9 1007.5 1007.5 0.0
22/02:00am 24.8 24.2 15.7 57 5.5 NNE 13 15 7 8 1007.8 1007.8 0.0
22/01:30am 25.3 23.6 14.7 51 6.3 WNW 17 28 9 15 1007.7 1007.7 0.0
22/01:00am 27.3 25.9 7.2 28 10.7 S 4 11 2 6 1007.4 1007.4 0.0
22/12:30am 25.9 23.5 11.3 40 8.3 SE 15 17 8 9 1007.7 1007.7 0.0
22/12:00am 25.7 26.7 14.2 49 6.8 SW 2 7 1 4 1008.5 1008.5 0.0
 
Date/Time
CDT
Temp
°C
App
Temp
°C
Dew
Point
Rel
Hum
%
Delta-T
°C
Wind Press
QNH
hPa
Press
MSL
hPa
Rain
since 9 am
mm
Dir
 
Spd
km/h
Gust
km/h
Spd
kts
Gust
kts
21/11:30pm 26.4 25.6 13.9 46 7.4 E 11 13 6 7 1008.9 1008.9 0.0
21/11:00pm 25.8 25.6 14.6 50 6.7 SE 9 13 5 7 1009.0 1009.0 0.0
21/10:30pm 27.1 26.2 14.8 47 7.4 NW 13 24 7 13 1009.6 1009.6 0.0
21/10:00pm 28.5 25.4 8.7 29 10.9 W 15 30 8 16 1009.2 1009.2 0.0
21/09:30pm 27.8 25.8 8.6 30 10.5 SE 9 15 5 8 1008.7 1008.7 0.0
21/09:00pm 28.2 24.1 8.5 29 10.8 E 20 28 11 15 1008.0 1008.0 0.0
21/08:30pm 28.7 24.5 9.9 31 10.6 ESE 22 30 12 16 1007.8 1007.8 0.0
21/08:00pm 29.3 25.0 10.9 32 10.5 ESE 24 32 13 17 1007.7 1007.7 0.0
21/07:30pm 30.1 25.4 12.1 33 10.5 E 28 32 15 17 1008.0 1008.0 0.0
21/07:00pm 31.9 29.4 12.2 30 11.6 ESE 17 22 9 12 1007.9 1007.9 0.0
21/06:30pm 33.7 29.5 1.5 13 16.2 S 13 17 7 9 1007.8 1007.8 0.0
21/06:00pm 34.3 30.0 3.0 14 16.2 SSW 15 20 8 11 1007.7 1007.7 0.0
21/05:30pm 33.7 29.8 3.5 15 15.7 SSW 13 20 7 11 1007.9 1007.9 0.0
21/05:00pm 35.3 31.5 3.8 14 16.6 SW 13 22 7 12 1008.2 1008.2 0.0
21/04:30pm 35.6 31.1 4.0 14 16.7 SSW 17 24 9 13 1008.5 1008.5 0.0
21/04:00pm 34.7 30.0 5.2 16 15.8 SW 19 24 10 13 1008.9 1008.9 0.0
21/03:30pm 33.1 28.3 4.8 17 15.0 SW 19 24 10 13 1009.2 1009.2 0.0
21/03:00pm 34.7 30.0 6.1 17 15.6 WSW 20 30 11 16 1009.4 1009.4 0.0
21/02:30pm 35.0 29.4 5.4 16 16.0 WSW 24 30 13 16 1009.8 1009.8 0.0
21/02:00pm 35.3 29.2 4.8 15 16.3 WSW 26 37 14 20 1010.2 1010.2 0.0
21/01:30pm 35.3 28.0 2.7 13 16.9 WNW 30 37 16 20 1010.4 1010.4 0.0
21/01:00pm 34.8 28.6 4.4 15 16.1 WNW 26 37 14 20 1010.5 1010.5 0.0
21/12:30pm 34.6 28.4 4.2 15 16.0 WNW 26 35 14 19 1010.8 1010.8 0.0
21/12:00pm 34.1 27.6 4.7 16 15.6 WNW 28 37 15 20 1011.0 1011.0 0.0
21/11:30am 34.8 29.0 4.4 15 16.1 WNW 24 33 13 18 1010.8 1010.8 0.0
21/11:00am 34.9 29.7 5.4 16 15.9 WNW 22 30 12 16 1010.8 1010.8 0.0
21/10:30am 34.6 29.0 3.2 14 16.3 NNW 22 30 12 16 1011.1 1011.1 0.0
21/10:00am 32.9 27.7 3.8 16 15.1 NNE 20 28 11 15 1011.1 1011.1 0.0
21/09:30am 32.2 26.9 4.9 18 14.4 N 22 30 12 16 1011.4 1011.4 0.0
21/09:00am 31.1 25.4 4.8 19 13.7 NNE 24 33 13 18 1011.3 1011.3 0.0
21/08:30am 30.0 24.2 4.6 20 13.1 NNE 24 33 13 18 1011.4 1011.4 0.0
21/08:00am 28.6 25.5 5.5 23 12.0 NE 11 20 6 11 1011.3 1011.3 0.0
21/07:54am 26.7 25.5 8.2 31 10.0 NE 4 9 2 5 1011.3 1011.3 0.0
21/07:30am 21.6 21.9 11.0 51 5.8 CALM 0 0 0 0 1011.2 1011.2 0.0
21/07:00am 18.7 19.3 11.8 64 3.8 CALM 0 0 0 0 1011.1 1011.1 0.0
21/06:30am 15.8 16.0 10.6 71 2.8 CALM 0 0 0 0 1011.0 1011.0 0.0
21/06:00am 15.6 15.8 10.6 72 2.6 CALM 0 0 0 0 1011.0 1011.0 0.0
21/05:30am 16.1 16.3 10.6 70 2.9 CALM 0 0 0 0 1010.9 1010.9 0.0
21/05:00am 16.8 17.2 11.3 70 3.0 CALM 0 0 0 0 1010.9 1010.9 0.0
21/04:30am 16.9 17.0 11.4 70 3.0 SSW 2 7 1 4 1011.0 1011.0 0.0
21/04:00am 16.7 15.6 10.5 67 3.3 W 7 13 4 7 1011.1 1011.1 0.0
21/03:30am 16.9 14.6 9.1 60 4.0 W 11 13 6 7 1010.9 1010.9 0.0
21/03:00am 19.2 17.2 8.8 51 5.4 ENE 9 11 5 6 1011.0 1011.0 0.0
21/02:30am 18.6 18.4 9.1 54 5.0 CALM 0 6 0 3 1011.7 1011.7 0.0
21/02:00am 20.1 17.9 9.4 50 5.7 WNW 11 15 6 8 1012.0 1012.0 0.0
21/01:30am 20.8 19.5 9.1 47 6.2 WNW 6 11 3 6 1011.6 1011.6 0.0
21/01:00am 22.0 19.4 9.5 45 6.7 E 13 19 7 10 1011.9 1011.9 0.0
21/12:30am 22.1 19.6 9.6 45 6.7 E 13 20 7 11 1012.2 1012.2 0.0
21/12:00am 22.4 18.6 9.9 45 6.8 E 20 28 11 15 1012.2 1012.2 0.0
 
Date/Time
CDT
Temp
°C
App
Temp
°C
Dew
Point
Rel
Hum
%
Delta-T
°C
Wind Press
QNH
hPa
Press
MSL
hPa
Rain
since 9 am
mm
Dir
 
Spd
km/h
Gust
km/h
Spd
kts
Gust
kts
20/11:30pm 22.9 19.1 9.7 43 7.2 E 20 30 11 16 1012.5 1012.5 0.0
20/11:00pm 23.3 19.6 10.0 43 7.3 E 20 28 11 15 1012.8 1012.8 0.0
20/10:30pm 23.2 21.2 10.3 44 7.1 ENE 11 17 6 9 1013.3 1013.3 0.0
20/10:00pm 23.8 21.9 10.5 43 7.4 ESE 11 20 6 11 1013.5 1013.5 0.0
20/09:30pm 23.3 22.2 10.0 43 7.3 NE 6 9 3 5 1013.6 1013.6 0.0
20/09:00pm 24.4 22.4 10.3 41 7.8 E 11 15 6 8 1013.6 1013.6 0.0
20/08:30pm 25.6 23.5 9.8 37 8.7 SE 11 17 6 9 1013.4 1013.4 0.0
20/08:00pm 27.4 25.3 6.8 27 10.9 SSE 7 11 4 6 1012.9 1012.9 0.0
20/07:30pm 28.3 25.9 7.0 26 11.4 S 9 11 5 6 1012.9 1012.9 0.0
20/07:00pm 28.3 26.0 7.5 27 11.2 SSW 9 17 5 9 1013.0 1013.0 0.0
20/06:30pm 28.6 25.9 7.2 26 11.5 SW 11 15 6 8 1013.0 1013.0 0.0
20/06:00pm 28.6 25.2 7.8 27 11.3 SW 15 19 8 10 1013.2 1013.2 0.0
20/05:30pm 28.5 24.5 8.2 28 11.1 W 19 24 10 13 1013.4 1013.4 0.0
20/05:00pm 27.7 23.5 8.1 29 10.6 W 20 28 11 15 1013.6 1013.6 0.0
20/04:30pm 28.8 24.8 9.0 29 10.9 WSW 20 28 11 15 1013.8 1013.8 0.0
20/04:00pm 28.2 22.5 8.5 29 10.8 W 28 35 15 19 1014.0 1014.0 0.0

Other Formats:

Comma delimited format used in spreadsheet applications
http://www.bom.gov.au/fwo/IDS60801/IDS60801.95677.axf

JavaScript Object Notation format (JSON) in row-major order
http://www.bom.gov.au/fwo/IDS60801/IDS60801.95677.json